• Join FlightAware (Why Join?)
  • Login
  • US Flag 
09:04AM EDT


 

Airport Tracker/Info


-or-


 

Live Flight TrackerFlight Track Log ✈ N201LH ✈ 08-May-2013 ✈ KTVC - KHYX

Flight Track Log - Related Links

Times and Time Zones

All times are in EDT time to prevent confusion due to time zone crossing. See the N201LH flight status page for this flight to view local times or setup timezone preferences in your user account.

Time Position Orientation Groundspeed Altitude Reporting Facility
EDT Latitude Longitude Course Direction KTS MPH feet Rate Location/Type
02:34PM 44.7406 -85.5589 135° Southeast 90 104 1,900  Level Minneapolis Center
02:35PM 44.7147 -85.5367 149° Southeast 100 115 2,600 660 Climbing Minneapolis Center
02:36PM 44.6889 -85.5086 142° Southeast 108 124 3,300 660 Climbing Minneapolis Center
02:37PM 44.6608 -85.4717 137° Southeast 112 129 4,000 660 Climbing Minneapolis Center
02:39PM 44.6372 -85.4400 136° Southeast 115 132 4,700 540 Climbing Minneapolis Center
02:40PM 44.5968 -85.3864 135° Southeast  Level Estimated
02:40PM 44.6147 -85.4053 132° Southeast 118 136 5,200  Level Minneapolis Center
02:41PM 44.5914 -85.3747 137° Southeast 117 135 5,900 600 Climbing Minneapolis Center
02:42PM 44.5669 -85.3433 138° Southeast 118 136 6,500 480 Climbing Minneapolis Center
02:43PM 44.5436 -85.3158 140° Southeast 113 130 7,000 180 Climbing Minneapolis Center
02:44PM 44.5039 -85.2731 142° Southeast 127 146 7,000  Level Minneapolis Center
02:45PM 44.4767 -85.2275 130° Southeast 145 167 7,000  Level Minneapolis Center
02:46PM 44.4531 -85.1822 126° Southeast 146 168 7,000  Level Minneapolis Center
02:47PM 44.4206 -85.1478 143° Southeast 146 168 7,000  Level Minneapolis Center
02:48PM 44.3908 -85.1092 137° Southeast 146 168 7,000  Level Minneapolis Center
02:49PM 44.3611 -85.0700 137° Southeast 147 169 7,000  Level Minneapolis Center
02:50PM 44.3222 -85.0214 138° Southeast 154 177 7,000  Level Minneapolis Center
02:51PM 44.2889 -84.9789 138° Southeast 160 184 7,000  Level Minneapolis Center
02:52PM 44.2547 -84.9272 133° Southeast 153 176 7,000  Level Minneapolis Center
02:53PM 44.2258 -84.8883 136° Southeast 148 170 7,000  Level Minneapolis Center
02:54PM 44.1942 -84.8489 138° Southeast 150 173 7,100  Climbing Minneapolis Center
02:55PM 44.1564 -84.7981 136° Southeast 156 180 7,100  Level Minneapolis Center
02:57PM 44.1256 -84.7547 135° Southeast 157 181 7,100  Level Minneapolis Center
02:58PM 44.0942 -84.7125 136° Southeast 158 182 7,100 -60 Level Minneapolis Center
02:59PM 44.0628 -84.6700 136° Southeast 158 182 7,000 -60 Descending Minneapolis Center
03:00PM 44.0250 -84.6281 141° Southeast 159 183 7,000  Level Minneapolis Center
03:01PM 43.9947 -84.5878 136° Southeast 154 177 7,000  Level Minneapolis Center
03:02PM 43.9661 -84.5458 133° Southeast 146 168 7,100  Climbing Minneapolis Center
03:03PM 43.9347 -84.5061 138° Southeast 150 173 7,100  Level Minneapolis Center
03:04PM 43.9036 -84.4667 138° Southeast 152 175 7,100 -180 Level Minneapolis Center
03:05PM 43.8706 -84.4253 138° Southeast 157 181 6,800 -300 Descending Minneapolis Center
03:06PM 43.8372 -84.3842 138° Southeast 160 184 6,500 -360 Descending Minneapolis Center
03:07PM 43.8019 -84.3378 136° Southeast 163 188 6,100 -300 Descending Minneapolis Center
03:08PM 43.7658 -84.2881 135° Southeast 163 188 6,000 -120 Descending Minneapolis Center